بیروت, لبنان

12:17 PM EEST on اوت 29, 2015 (GMT +0300)
Beirut International | | Change Station
CLOSE
Current Station
Airport
Location: Beirut,
Elevation: 62 ft
Nearby Weather Stations

Elev 62 ft 33.82 °N, 35.49 °E | Updated 17 minutes ago

Partly Cloudy
ابرهاى پراكنده
86 °F
Feels Like 92 °F
N
9
باد متغير باد from WSW

امروز
High -- | Low -- °F
--% Chance of Precip.
دیروز
High -- | Low -- °F
Precip. -- در
6:09 AM 7:08 PM
ماه کامل, 100% visible
فشار 29.89 در
ديد 6.2 مايل، ميل (در برابر كيلومتر
ابری Few 2600 ft
شاخص گرما 92 °F
قطره شبنم 72 °F
رطوبت 62%
بارش باران 0.00 در
برف عمیق Not available.
مادون قرمز 11 out of 12
Pollen Not available.
تمیزی هوا Not available.
Flu Activity Not available.
METAR OLBA 290900Z 25008KT 9999 FEW026 30/22 Q1012
فشار 29.89 در
ديد 6.2 مايل، ميل (در برابر كيلومتر
ابری Few 2600 ft
شاخص گرما 92 °F
قطره شبنم 72 °F
رطوبت 62%
بارش باران 0.00 در
برف عمیق Not available.
مادون قرمز 11 out of 12
Pollen Not available.
تمیزی هوا Not available.
Flu Activity Not available.
METAR OLBA 290900Z 25008KT 9999 FEW026 30/22 Q1012

10-Day Weather Forecast

×

Almanac

ستاره شناسی

Aug. 29, 2015 Rise Set
وقت حقیقی
تاریک و روشن اجتماعی
تاریک روشن دریایی
شفق و فلق نجومی
ماه
میزان روشنایی روز
طول روز
Tomorrow will be .
, % of the Moon is Illuminated

Today's Extremes

Country Highs Country Lows

Community

WunderPhotos

Upload Photos

1,850,634 photos uploaded!

WunderBlogs® & News

Nearby

تمیزی هوا

  تمیزی هوا AQ Index آلاینده
Not available.

عمق برف

Station Depth Elevation

Earthquake Activity

شهر Distance Mag. Time & Date
Minimum magnitude displayed is 2.5.

Coastal Water Temperatures

منطقه درجه حرارت

Stations

Nearby Weather Stations

Station Location دما باد سرد قطره شبنم رطوبت باد Precip. Elev ارتقا دادن Type